createdAt,value
2024-03-16T00:03:11.031Z,99978.16
2024-03-16T00:08:13.909Z,99982.03
2024-03-16T00:13:16.910Z,99991.81
2024-03-16T00:18:20.121Z,99996.16
2024-03-16T00:23:22.907Z,99988.97
2024-03-16T00:28:25.670Z,99999.47
2024-03-16T00:33:28.536Z,100001.34
2024-03-16T00:38:31.336Z,100009.56
2024-03-16T00:43:34.049Z,100006.31
2024-03-16T00:48:36.892Z,100013.50
2024-03-16T00:53:42.707Z,100003.03
2024-03-16T00:58:45.417Z,100010.56
2024-03-16T01:03:48.253Z,100012.97
2024-03-16T01:08:51.019Z,100013.34
2024-03-16T01:13:53.842Z,99998.81
2024-03-16T01:18:56.645Z,100007.00
2024-03-16T01:23:59.535Z,100006.56
2024-03-16T01:29:04.845Z,100003.47
2024-03-16T01:34:07.613Z,100007.72
2024-03-16T01:39:13.312Z,100018.56
2024-03-16T01:44:16.456Z,100020.38
2024-03-16T01:49:22.892Z,100018.72
2024-03-16T01:54:25.669Z,100010.03
2024-03-16T01:59:28.623Z,100010.78
2024-03-16T02:04:31.350Z,99999.72
2024-03-16T02:09:34.212Z,100000.88
2024-03-16T02:14:36.993Z,100010.94
2024-03-16T02:19:39.725Z,100018.94
2024-03-16T02:24:42.579Z,100013.66
2024-03-16T02:29:45.471Z,99999.75
2024-03-16T02:34:48.602Z,100022.94
2024-03-16T02:39:51.909Z,100018.31
2024-03-16T02:44:54.668Z,100022.28
2024-03-16T02:49:57.508Z,100020.78
2024-03-16T02:55:00.584Z,100006.50
2024-03-16T03:00:08.259Z,100012.38
2024-03-16T03:05:12.601Z,100009.09
2024-03-16T03:10:15.764Z,100010.91
2024-03-16T03:15:19.589Z,100021.34
2024-03-16T03:20:24.964Z,100014.84
2024-03-16T03:25:27.730Z,100024.38
2024-03-16T03:30:30.507Z,100026.53
2024-03-16T03:35:33.373Z,100015.31
2024-03-16T03:40:36.347Z,100019.34
2024-03-16T03:45:51.200Z,100022.34
2024-03-16T03:50:54.121Z,100024.44
2024-03-16T03:55:56.904Z,100021.13
2024-03-16T04:01:03.447Z,100025.19
2024-03-16T04:06:06.434Z,100029.50
2024-03-16T04:11:09.758Z,100026.91
2024-03-16T04:16:15.636Z,100032.84
2024-03-16T04:21:19.138Z,100041.53
2024-03-16T04:26:21.927Z,100042.75
2024-03-16T04:31:24.648Z,100057.53
2024-03-16T04:36:27.583Z,100058.34
2024-03-16T04:41:32.520Z,100067.00
2024-03-16T04:46:36.797Z,100061.44
2024-03-16T04:51:42.107Z,100070.16
2024-03-16T04:56:44.936Z,100075.59
2024-03-16T05:01:47.724Z,100076.47
2024-03-16T05:06:50.564Z,100068.34
2024-03-16T05:11:53.373Z,100073.09
2024-03-16T05:16:56.194Z,100070.09
2024-03-16T05:21:59.614Z,100068.22
2024-03-16T05:27:03.095Z,100068.09
2024-03-16T05:32:06.162Z,100077.56
2024-03-16T05:37:09.334Z,100078.97
2024-03-16T05:42:13.169Z,100091.53
2024-03-16T05:47:16.125Z,100085.44
2024-03-16T05:52:19.328Z,100083.75
2024-03-16T05:57:22.248Z,100086.41
2024-03-16T06:02:26.184Z,100091.44
2024-03-16T06:07:29.724Z,100094.59
2024-03-16T06:12:33.292Z,100097.69
2024-03-16T06:17:36.072Z,100105.50
2024-03-16T06:22:38.788Z,100101.44
2024-03-16T06:27:50.601Z,100110.59
2024-03-16T06:33:06.906Z,100118.91
2024-03-16T06:38:09.935Z,100130.75
2024-03-16T06:43:12.913Z,100130.53
2024-03-16T06:48:16.606Z,100134.28
2024-03-16T06:53:19.621Z,100145.22
2024-03-16T06:58:22.474Z,100147.50
2024-03-16T07:03:25.413Z,100150.44
2024-03-16T07:08:28.212Z,100165.78
2024-03-16T07:13:31.040Z,100164.31
2024-03-16T07:18:34.296Z,100177.63
2024-03-16T07:23:37.113Z,100178.75
2024-03-16T07:28:39.894Z,100184.13
2024-03-16T07:33:42.768Z,100185.78
2024-03-16T07:38:46.076Z,100192.78
2024-03-16T07:43:49.135Z,100188.44
2024-03-16T07:48:52.144Z,100201.00
2024-03-16T07:53:55.222Z,100199.06
2024-03-16T07:59:00.172Z,100205.56
2024-03-16T08:04:03.429Z,100206.53
2024-03-16T08:09:07.440Z,100208.53
2024-03-16T08:14:11.469Z,100230.38
2024-03-16T08:19:16.392Z,100234.97
2024-03-16T08:24:20.818Z,100239.81
2024-03-16T08:29:24.318Z,100229.78
2024-03-16T08:34:27.554Z,100238.41
2024-03-16T08:39:30.593Z,100225.91
2024-03-16T08:44:33.429Z,100230.16
2024-03-16T08:49:36.330Z,100222.38
2024-03-16T08:54:39.353Z,100226.13
2024-03-16T08:59:42.109Z,100217.22
2024-03-16T09:04:45.402Z,100217.81
2024-03-16T09:09:48.323Z,100215.34
2024-03-16T09:14:53.597Z,100229.84
2024-03-16T09:19:58.878Z,100219.41
2024-03-16T09:25:02.659Z,100240.03
2024-03-16T09:30:07.382Z,100260.53
2024-03-16T09:35:11.932Z,100240.84
2024-03-16T09:40:16.168Z,100259.09
